Terminal Aerodrome Forecast
Issued by NWS

Current Version | Previous Version | Text Only | Print | Product List | Glossary On
Versions: 1 2 3 4 5 6 7 8 9 10 11 12 13 14 15 16 17
000
FTUS44 KHGX 251121
TAFCXO
TAF
KCXO 251121Z 2512/2612 VRB02KT P6SM SCT250
      TEMPO 2512/2514 5SM BR
     FM251500 24007KT P6SM SCT050 SCT250
     FM252300 34008KT P6SM BKN050
     FM260200 35010KT P6SM VCSH SCT025 BKN050
     FM260700 33006KT P6SM SCT050=

USA.gov is the U.S. government's official web portal to all federal, state and local government web resources and services.